createdAt,value
2022-08-19T00:02:00.434Z,3.47
2022-08-19T00:04:33.360Z,3.20
2022-08-19T00:07:01.730Z,2.60
2022-08-19T00:09:29.997Z,3.88
2022-08-19T00:11:59.391Z,2.92
2022-08-19T00:14:28.749Z,3.00
2022-08-19T00:16:57.681Z,3.83
2022-08-19T00:19:27.029Z,2.88
2022-08-19T00:21:57.963Z,3.00
2022-08-19T00:24:27.029Z,3.15
2022-08-19T00:26:56.116Z,4.68
2022-08-19T00:29:29.290Z,2.63
2022-08-19T00:32:00.813Z,4.70
2022-08-19T00:34:30.629Z,4.45
2022-08-19T00:37:00.502Z,3.72
2022-08-19T00:39:28.469Z,4.38
2022-08-19T00:41:56.543Z,3.92
2022-08-19T00:44:28.856Z,2.83
2022-08-19T00:46:59.905Z,2.20
2022-08-19T00:49:36.358Z,3.15
2022-08-19T00:52:09.717Z,4.45
2022-08-19T00:54:51.978Z,3.67
2022-08-19T00:57:25.254Z,3.25
2022-08-19T01:00:01.967Z,2.95
2022-08-19T01:02:32.790Z,4.75
2022-08-19T01:05:03.510Z,4.90
2022-08-19T01:07:35.984Z,3.72
2022-08-19T01:10:07.986Z,3.35
2022-08-19T01:12:36.114Z,4.72
2022-08-19T01:15:05.199Z,4.65
2022-08-19T01:17:33.633Z,3.63
2022-08-19T01:20:03.026Z,3.63
2022-08-19T01:22:34.328Z,5.07
2022-08-19T01:25:12.865Z,5.25
2022-08-19T01:27:45.738Z,6.07
2022-08-19T01:30:15.517Z,3.58
2022-08-19T01:32:44.186Z,3.63
2022-08-19T01:35:13.517Z,5.15
2022-08-19T01:37:50.697Z,3.35
2022-08-19T01:40:21.273Z,3.17
2022-08-19T01:42:49.962Z,2.60
2022-08-19T01:45:21.745Z,4.68
2022-08-19T01:48:01.048Z,4.70
2022-08-19T01:50:32.188Z,3.58
2022-08-19T01:53:07.752Z,3.15
2022-08-19T01:55:40.841Z,3.53
2022-08-19T01:58:13.310Z,4.95
2022-08-19T02:00:41.444Z,3.30
2022-08-19T02:03:10.289Z,4.10
2022-08-19T02:05:38.338Z,3.38
2022-08-19T02:08:07.764Z,5.22
2022-08-19T02:10:35.762Z,4.97
2022-08-19T02:13:03.986Z,3.45
2022-08-19T02:15:34.143Z,4.00
2022-08-19T02:18:02.051Z,3.33
2022-08-19T02:20:29.928Z,3.92
2022-08-19T02:23:02.188Z,3.67
2022-08-19T02:25:33.630Z,5.53
2022-08-19T02:28:01.494Z,4.88
2022-08-19T02:30:29.850Z,2.75
2022-08-19T02:32:58.698Z,3.55
2022-08-19T02:35:31.167Z,4.43
2022-08-19T02:38:16.368Z,4.85
2022-08-19T02:40:54.897Z,3.85
2022-08-19T02:43:23.871Z,3.40
2022-08-19T02:45:52.888Z,3.40
2022-08-19T02:48:22.911Z,3.72
2022-08-19T02:50:56.377Z,3.10
2022-08-19T02:53:26.099Z,2.72
2022-08-19T02:55:55.812Z,3.42
2022-08-19T02:58:25.329Z,3.22
2022-08-19T03:00:56.188Z,3.38
2022-08-19T03:03:24.372Z,2.50
2022-08-19T03:05:56.492Z,3.63
2022-08-19T03:08:25.427Z,4.05
2022-08-19T03:10:55.634Z,4.22
2022-08-19T03:13:24.196Z,4.50
2022-08-19T03:15:52.328Z,4.13
2022-08-19T03:18:23.490Z,4.25
2022-08-19T03:20:53.819Z,5.05
2022-08-19T03:23:25.330Z,3.65
2022-08-19T03:25:58.161Z,4.25
2022-08-19T03:28:51.392Z,4.65
2022-08-19T03:31:44.282Z,3.60
2022-08-19T03:34:15.120Z,2.88
2022-08-19T03:36:49.341Z,3.80
2022-08-19T03:39:18.274Z,3.95
2022-08-19T03:41:49.931Z,4.60
2022-08-19T03:44:39.243Z,2.90
2022-08-19T03:47:07.470Z,2.30
2022-08-19T03:49:36.075Z,4.53
2022-08-19T03:52:08.177Z,4.05
2022-08-19T03:54:36.955Z,3.28
2022-08-19T03:57:12.082Z,4.47
2022-08-19T03:59:40.636Z,3.47
2022-08-19T04:02:11.542Z,4.57
2022-08-19T04:04:40.404Z,4.53
2022-08-19T04:07:09.197Z,6.13
2022-08-19T04:09:38.123Z,3.25
2022-08-19T04:12:07.953Z,4.80
2022-08-19T04:14:36.951Z,4.07
2022-08-19T04:17:06.590Z,4.10
2022-08-19T04:19:36.328Z,4.90
2022-08-19T04:22:05.039Z,6.68
2022-08-19T04:24:33.829Z,3.75
2022-08-19T04:27:02.839Z,3.20
2022-08-19T04:29:35.672Z,4.63
2022-08-19T04:32:09.445Z,4.97
2022-08-19T04:35:01.377Z,4.75
2022-08-19T04:37:27.422Z,4.90
2022-08-19T04:40:15.055Z,5.18
2022-08-19T04:42:42.915Z,5.55
2022-08-19T04:45:15.747Z,4.07
2022-08-19T04:47:49.148Z,4.18
2022-08-19T04:50:27.955Z,3.70
2022-08-19T04:52:56.927Z,5.40
2022-08-19T04:55:26.543Z,4.53
2022-08-19T04:57:57.052Z,5.72
2022-08-19T05:00:26.519Z,5.53
2022-08-19T05:02:54.535Z,3.38
2022-08-19T05:05:22.483Z,5.03
2022-08-19T05:07:50.755Z,4.28
2022-08-19T05:10:18.740Z,3.55
2022-08-19T05:12:49.887Z,4.68
2022-08-19T05:15:19.781Z,4.63
2022-08-19T05:18:02.941Z,5.38
2022-08-19T05:20:48.062Z,5.72
2022-08-19T05:23:21.911Z,5.22
2022-08-19T05:25:51.159Z,4.22
2022-08-19T05:28:19.386Z,5.07
2022-08-19T05:30:48.988Z,4.28
2022-08-19T05:33:18.258Z,6.20
2022-08-19T05:35:47.086Z,6.30
2022-08-19T05:38:14.955Z,4.47
2022-08-19T05:40:42.899Z,4.80
2022-08-19T05:43:10.912Z,2.35
2022-08-19T05:45:44.098Z,4.88
2022-08-19T05:48:13.100Z,5.30
2022-08-19T05:50:46.255Z,4.40
2022-08-19T05:53:17.210Z,5.10
2022-08-19T05:55:45.140Z,8.60
2022-08-19T05:58:13.042Z,6.38
2022-08-19T06:00:41.034Z,7.10
2022-08-19T06:03:12.566Z,8.23
2022-08-19T06:05:52.093Z,6.35
2022-08-19T06:08:34.160Z,7.22
2022-08-19T06:11:19.321Z,7.22
2022-08-19T06:13:51.383Z,7.07
2022-08-19T06:16:23.245Z,6.80
2022-08-19T06:18:53.449Z,11.02
2022-08-19T06:21:24.688Z,9.48
2022-08-19T06:23:54.909Z,10.35
2022-08-19T06:26:24.415Z,9.57
2022-08-19T06:28:52.668Z,7.28
2022-08-19T06:31:25.699Z,9.93
2022-08-19T06:33:55.116Z,8.80
2022-08-19T06:36:32.417Z,9.75
2022-08-19T06:39:01.401Z,11.45
2022-08-19T06:41:32.130Z,10.32
2022-08-19T06:44:02.852Z,7.90
2022-08-19T06:46:31.685Z,11.48
2022-08-19T06:49:05.239Z,13.68
2022-08-19T06:51:35.312Z,12.65
2022-08-19T06:54:19.171Z,11.00
2022-08-19T06:56:48.368Z,15.27
2022-08-19T06:59:18.741Z,13.38
2022-08-19T07:01:49.053Z,15.55
2022-08-19T07:04:19.541Z,13.27
2022-08-19T07:06:54.852Z,16.35
2022-08-19T07:09:23.885Z,15.93
2022-08-19T07:11:55.195Z,14.45
2022-08-19T07:14:26.299Z,17.67
2022-08-19T07:16:57.030Z,16.20
2022-08-19T07:19:28.305Z,17.88
2022-08-19T07:21:57.816Z,16.75
2022-08-19T07:24:27.827Z,13.38
2022-08-19T07:27:08.475Z,14.18
2022-08-19T07:29:43.006Z,15.32
2022-08-19T07:32:13.594Z,16.77
2022-08-19T07:34:41.496Z,19.70
2022-08-19T07:37:17.077Z,20.70
2022-08-19T07:39:44.958Z,20.65
2022-08-19T07:42:21.872Z,18.88
2022-08-19T07:44:50.996Z,21.73
2022-08-19T07:47:47.966Z,16.50
2022-08-19T07:50:10.590Z,18.05
2022-08-19T07:52:40.790Z,15.98
2022-08-19T07:55:42.684Z,17.60
2022-08-19T07:57:59.617Z,19.85
2022-08-19T08:00:27.928Z,16.63
2022-08-19T08:02:56.242Z,13.90
2022-08-19T08:05:41.782Z,13.63
2022-08-19T08:08:30.687Z,16.67
2022-08-19T08:10:58.790Z,16.33
2022-08-19T08:13:29.378Z,15.80
2022-08-19T08:15:57.307Z,19.38
2022-08-19T08:18:27.397Z,16.52
2022-08-19T08:20:56.665Z,17.80
2022-08-19T08:23:27.318Z,16.45
2022-08-19T08:25:57.733Z,17.80
2022-08-19T08:28:29.745Z,20.00
2022-08-19T08:30:58.936Z,18.30
2022-08-19T08:33:34.136Z,17.27
2022-08-19T08:36:04.116Z,15.52
2022-08-19T08:38:39.781Z,19.10
2022-08-19T08:41:20.282Z,18.83
2022-08-19T08:43:52.002Z,13.98
2022-08-19T08:46:30.485Z,20.10
2022-08-19T08:49:06.600Z,17.73
2022-08-19T08:54:12.677Z,18.00
2022-08-19T08:56:41.178Z,15.70
2022-08-19T08:59:18.489Z,17.95
2022-08-19T09:01:46.592Z,14.07
2022-08-19T09:04:15.425Z,17.55
2022-08-19T09:06:52.824Z,18.00
2022-08-19T09:09:32.014Z,18.60
2022-08-19T09:12:08.317Z,22.58
2022-08-19T09:14:50.718Z,18.48
2022-08-19T09:17:21.985Z,19.05
2022-08-19T09:19:58.305Z,15.32
2022-08-19T09:22:28.679Z,15.07
2022-08-19T09:25:01.297Z,16.63
2022-08-19T09:27:42.493Z,14.88
2022-08-19T09:30:15.812Z,15.82
2022-08-19T09:32:45.600Z,13.27
2022-08-19T09:35:15.880Z,17.73
2022-08-19T09:37:44.639Z,16.80
2022-08-19T09:40:15.604Z,14.38
2022-08-19T09:42:49.798Z,12.45
2022-08-19T09:45:22.074Z,12.13
2022-08-19T09:47:52.044Z,12.48
2022-08-19T09:50:23.776Z,13.10
2022-08-19T09:52:55.161Z,12.45
2022-08-19T09:55:31.589Z,11.10
2022-08-19T09:58:01.881Z,12.57
2022-08-19T10:00:31.305Z,11.95
2022-08-19T10:02:59.223Z,16.58
2022-08-19T10:05:44.766Z,12.98
2022-08-19T10:08:18.548Z,12.30
2022-08-19T10:10:51.226Z,12.85
2022-08-19T10:13:26.362Z,13.02
2022-08-19T10:15:55.753Z,14.02
2022-08-19T10:18:25.100Z,12.82
2022-08-19T10:20:56.061Z,11.38
2022-08-19T10:23:35.629Z,12.85
2022-08-19T10:26:06.939Z,16.80
2022-08-19T10:28:39.301Z,12.85
2022-08-19T10:31:08.390Z,11.32
2022-08-19T10:33:53.550Z,12.70
2022-08-19T10:36:24.445Z,13.77
2022-08-19T10:38:59.563Z,14.90
2022-08-19T10:41:38.870Z,13.80
2022-08-19T10:44:09.014Z,12.88
2022-08-19T10:46:39.457Z,18.85
2022-08-19T10:49:08.391Z,13.93
2022-08-19T10:51:53.926Z,20.25
2022-08-19T10:54:31.464Z,19.80
2022-08-19T10:57:04.321Z,18.00
2022-08-19T10:59:36.125Z,17.40
2022-08-19T11:02:20.611Z,13.00
2022-08-19T11:04:50.585Z,20.48
2022-08-19T11:07:22.439Z,18.10
2022-08-19T11:09:56.490Z,15.85
2022-08-19T11:12:28.610Z,21.10
2022-08-19T11:14:59.904Z,17.75
2022-08-19T11:17:27.814Z,16.52
2022-08-19T11:19:58.358Z,15.65
2022-08-19T11:22:34.426Z,13.77
2022-08-19T11:25:13.146Z,17.98
2022-08-19T11:27:44.206Z,16.27
2022-08-19T11:30:24.225Z,15.00
2022-08-19T11:32:54.582Z,18.50
2022-08-19T11:35:24.343Z,13.52
2022-08-19T11:37:52.211Z,13.10
2022-08-19T11:40:20.810Z,13.95
2022-08-19T11:42:57.009Z,12.10
2022-08-19T11:45:25.530Z,15.27
2022-08-19T11:47:56.889Z,12.43
2022-08-19T11:50:31.130Z,9.60
2022-08-19T11:52:59.208Z,10.85
2022-08-19T11:55:27.407Z,9.68
2022-08-19T11:57:59.389Z,7.68
2022-08-19T12:00:27.481Z,9.77
2022-08-19T12:02:55.681Z,8.05
2022-08-19T12:05:26.134Z,5.32
2022-08-19T12:07:55.427Z,9.55
2022-08-19T12:10:26.707Z,6.13
2022-08-19T12:12:58.768Z,6.60
2022-08-19T12:15:37.188Z,7.45
2022-08-19T12:18:09.873Z,7.40
2022-08-19T12:20:43.854Z,6.72
2022-08-19T12:23:12.173Z,5.90
2022-08-19T12:25:52.612Z,6.38
2022-08-19T12:28:23.555Z,6.50
2022-08-19T12:30:52.925Z,6.05
2022-08-19T12:33:25.551Z,4.82
2022-08-19T12:35:54.945Z,5.28
2022-08-19T12:38:25.185Z,5.00
2022-08-19T12:40:57.129Z,4.97
2022-08-19T12:43:30.278Z,4.85
2022-08-19T12:45:58.158Z,4.40
2022-08-19T12:48:33.898Z,4.75
2022-08-19T12:51:07.853Z,4.47
2022-08-19T12:53:39.348Z,5.22
2022-08-19T12:56:12.745Z,4.90
2022-08-19T12:58:50.238Z,4.47
2022-08-19T13:01:22.545Z,3.45
2022-08-19T13:03:53.004Z,3.28
2022-08-19T13:06:21.283Z,3.00
2022-08-19T13:08:49.184Z,2.63
2022-08-19T13:11:21.801Z,3.38
2022-08-19T13:13:52.233Z,3.40
2022-08-19T13:16:23.253Z,2.63
2022-08-19T13:18:52.299Z,5.20
2022-08-19T13:21:22.617Z,4.47
2022-08-19T13:23:51.634Z,3.30
2022-08-19T13:26:23.231Z,4.65
2022-08-19T13:29:12.598Z,5.38
2022-08-19T13:32:00.307Z,4.88
2022-08-19T13:34:36.966Z,5.07
2022-08-19T13:37:06.345Z,4.88
2022-08-19T13:39:36.349Z,2.92
2022-08-19T13:42:17.107Z,2.78
2022-08-19T13:44:47.161Z,5.45
2022-08-19T13:47:18.385Z,4.40
2022-08-19T13:49:47.714Z,4.15
2022-08-19T13:52:15.706Z,3.90
2022-08-19T13:54:47.444Z,5.20
2022-08-19T13:57:16.087Z,5.90
2022-08-19T13:59:44.004Z,2.85
2022-08-19T14:02:13.349Z,3.97
2022-08-19T14:04:44.276Z,3.10
2022-08-19T14:07:12.114Z,3.03
2022-08-19T14:09:39.969Z,3.33
2022-08-19T14:12:13.511Z,4.20
2022-08-19T14:14:46.036Z,3.47
2022-08-19T14:17:17.418Z,3.65
2022-08-19T14:19:48.176Z,3.28
2022-08-19T14:22:22.143Z,3.22
2022-08-19T14:24:51.103Z,6.00
2022-08-19T14:27:19.178Z,3.72
2022-08-19T14:29:47.423Z,4.07
2022-08-19T14:32:18.455Z,3.25
2022-08-19T14:34:47.479Z,2.70
2022-08-19T14:37:15.978Z,4.63
2022-08-19T14:39:45.641Z,3.17
2022-08-19T14:42:17.650Z,2.63
2022-08-19T14:44:46.004Z,3.38
2022-08-19T14:47:14.065Z,2.22
2022-08-19T14:49:48.420Z,4.43
2022-08-19T14:52:17.039Z,2.20
2022-08-19T14:54:45.244Z,2.97
2022-08-19T14:57:20.389Z,2.30
2022-08-19T14:59:48.233Z,1.65
2022-08-19T15:02:33.530Z,2.35
2022-08-19T15:05:04.690Z,2.08
2022-08-19T15:07:32.604Z,1.77
2022-08-19T15:10:00.670Z,2.60
2022-08-19T15:12:31.769Z,2.10
2022-08-19T15:15:03.002Z,1.75
2022-08-19T15:17:45.476Z,2.80
2022-08-19T15:20:18.889Z,1.58
2022-08-19T15:22:46.927Z,1.40
2022-08-19T15:25:17.004Z,1.63
2022-08-19T15:27:44.908Z,3.58
2022-08-19T15:30:22.580Z,2.80
2022-08-19T15:32:50.954Z,2.20
2022-08-19T15:35:21.176Z,1.90
2022-08-19T15:37:53.994Z,1.80
2022-08-19T15:40:22.807Z,2.35
2022-08-19T15:42:51.061Z,2.75
2022-08-19T15:45:20.522Z,1.40
2022-08-19T15:47:48.910Z,2.47
2022-08-19T15:50:19.822Z,2.47
2022-08-19T15:52:52.293Z,3.20
2022-08-19T15:55:32.594Z,1.95
2022-08-19T15:58:28.223Z,3.13
2022-08-19T16:01:15.463Z,1.67
2022-08-19T16:04:01.326Z,2.65
2022-08-19T16:06:33.113Z,2.40
2022-08-19T16:09:05.853Z,2.10
2022-08-19T16:11:40.143Z,2.88
2022-08-19T16:14:10.808Z,1.70
2022-08-19T16:16:39.521Z,2.10
2022-08-19T16:19:12.150Z,2.83
2022-08-19T16:21:41.751Z,2.97
2022-08-19T16:24:22.796Z,1.75
2022-08-19T16:26:52.922Z,2.20
2022-08-19T16:29:34.633Z,2.90
2022-08-19T16:32:10.499Z,2.70
2022-08-19T16:34:40.397Z,2.30
2022-08-19T16:37:11.176Z,1.70
2022-08-19T16:39:41.017Z,1.98
2022-08-19T16:42:12.568Z,2.40
2022-08-19T16:44:43.402Z,2.13
2022-08-19T16:47:12.344Z,2.08
2022-08-19T16:49:53.492Z,2.78
2022-08-19T16:52:31.354Z,2.13
2022-08-19T16:55:00.811Z,2.35
2022-08-19T16:57:28.841Z,1.77
2022-08-19T16:59:56.708Z,2.00
2022-08-19T17:02:29.597Z,1.40
2022-08-19T17:04:59.676Z,1.40
2022-08-19T17:07:33.321Z,2.67
2022-08-19T17:10:04.223Z,2.00
2022-08-19T17:12:34.497Z,2.50
2022-08-19T17:15:03.534Z,1.58
2022-08-19T17:17:32.313Z,1.65
2022-08-19T17:20:01.307Z,2.65
2022-08-19T17:22:29.685Z,1.60
2022-08-19T17:24:58.481Z,2.35
2022-08-19T17:27:32.666Z,1.70
2022-08-19T17:30:02.326Z,1.98
2022-08-19T17:32:30.753Z,3.40
2022-08-19T17:34:58.791Z,2.70
2022-08-19T17:37:26.973Z,1.50
2022-08-19T17:39:55.763Z,1.85
2022-08-19T17:42:23.778Z,2.22
2022-08-19T17:44:53.349Z,2.60
2022-08-19T17:47:28.883Z,1.88
2022-08-19T17:50:00.268Z,2.13
2022-08-19T17:52:28.341Z,1.63
2022-08-19T17:54:57.206Z,1.92
2022-08-19T17:57:31.469Z,2.10
2022-08-19T18:00:00.774Z,2.30
2022-08-19T18:02:32.958Z,2.08
2022-08-19T18:05:04.418Z,2.20
2022-08-19T18:07:35.421Z,1.50
2022-08-19T18:10:03.512Z,1.92
2022-08-19T18:12:31.738Z,2.13
2022-08-19T18:15:04.550Z,1.80
2022-08-19T18:17:37.207Z,1.63
2022-08-19T18:20:11.784Z,1.10
2022-08-19T18:22:42.408Z,1.45
2022-08-19T18:25:19.140Z,2.03
2022-08-19T18:27:47.776Z,1.30
2022-08-19T18:30:17.523Z,1.80
2022-08-19T18:32:49.206Z,2.70
2022-08-19T18:35:21.019Z,1.10
2022-08-19T18:37:49.426Z,1.42
2022-08-19T18:40:39.177Z,1.98
2022-08-19T18:43:25.219Z,1.20
2022-08-19T18:46:11.946Z,1.30
2022-08-19T18:48:59.804Z,1.27
2022-08-19T18:51:29.805Z,1.70
2022-08-19T18:53:59.580Z,1.48
2022-08-19T18:56:31.711Z,1.30
2022-08-19T18:59:04.405Z,1.00
2022-08-19T19:01:39.980Z,1.30
2022-08-19T19:04:11.547Z,1.10
2022-08-19T19:06:41.090Z,1.10
2022-08-19T19:09:10.314Z,0.90
2022-08-19T19:11:42.558Z,1.00
2022-08-19T19:14:23.201Z,1.15
2022-08-19T19:17:03.477Z,1.00
2022-08-19T19:19:32.312Z,1.60
2022-08-19T19:22:01.181Z,2.40
2022-08-19T19:24:34.324Z,1.40
2022-08-19T19:27:06.922Z,1.45
2022-08-19T19:29:36.457Z,1.70
2022-08-19T19:32:07.950Z,1.02
2022-08-19T19:34:38.620Z,1.30
2022-08-19T19:37:07.091Z,1.20
2022-08-19T19:39:46.004Z,1.35
2022-08-19T19:42:20.388Z,1.48
2022-08-19T19:44:56.068Z,2.00
2022-08-19T19:47:26.720Z,1.45
2022-08-19T19:50:16.078Z,1.85
2022-08-19T19:52:46.573Z,1.48
2022-08-19T19:55:18.418Z,2.03
2022-08-19T19:57:46.561Z,1.40
2022-08-19T20:00:18.523Z,2.47
2022-08-19T20:02:50.371Z,2.60
2022-08-19T20:05:21.067Z,1.58
2022-08-19T20:08:07.371Z,1.90
2022-08-19T20:10:38.745Z,1.60
2022-08-19T20:13:07.935Z,1.35
2022-08-19T20:15:40.445Z,2.08
2022-08-19T20:18:14.259Z,2.17
2022-08-19T20:20:49.473Z,2.97
2022-08-19T20:23:17.535Z,2.30
2022-08-19T20:25:45.390Z,1.52
2022-08-19T20:28:13.620Z,2.85
2022-08-19T20:30:46.424Z,2.13
2022-08-19T20:33:18.628Z,2.25
2022-08-19T20:35:49.350Z,2.13
2022-08-19T20:38:18.007Z,2.45
2022-08-19T20:40:46.401Z,4.47
2022-08-19T20:43:14.987Z,2.53
2022-08-19T20:45:43.061Z,1.85
2022-08-19T20:48:12.373Z,2.20
2022-08-19T20:50:41.934Z,2.15
2022-08-19T20:53:11.730Z,2.42
2022-08-19T20:55:42.347Z,2.95
2022-08-19T20:58:15.701Z,3.42
2022-08-19T21:00:50.632Z,2.63
2022-08-19T21:03:20.305Z,2.30
2022-08-19T21:05:49.539Z,2.47
2022-08-19T21:08:19.094Z,2.88
2022-08-19T21:10:47.228Z,1.70
2022-08-19T21:13:19.873Z,2.55
2022-08-19T21:15:48.491Z,1.63
2022-08-19T21:18:20.175Z,1.85
2022-08-19T21:20:51.697Z,2.80
2022-08-19T21:23:23.377Z,1.88
2022-08-19T21:25:54.762Z,1.90
2022-08-19T21:28:35.513Z,2.00
2022-08-19T21:31:06.315Z,2.17
2022-08-19T21:33:34.323Z,2.22
2022-08-19T21:36:04.601Z,4.53
2022-08-19T21:38:35.558Z,2.50
2022-08-19T21:41:09.534Z,2.17
2022-08-19T21:46:19.991Z,3.40
2022-08-19T21:48:48.541Z,2.25
2022-08-19T21:51:19.473Z,2.38
2022-08-19T21:53:49.007Z,3.13
2022-08-19T21:56:26.074Z,2.92
2022-08-19T21:58:55.472Z,2.90
2022-08-19T22:01:26.668Z,2.88
2022-08-19T22:03:54.597Z,2.25
2022-08-19T22:06:25.667Z,3.00
2022-08-19T22:08:56.684Z,3.25
2022-08-19T22:11:25.895Z,2.67
2022-08-19T22:13:56.017Z,1.48
2022-08-19T22:16:24.385Z,2.53
2022-08-19T22:18:52.602Z,2.03
2022-08-19T22:21:39.967Z,2.17
2022-08-19T22:24:12.605Z,3.08
2022-08-19T22:26:40.526Z,2.85
2022-08-19T22:29:08.936Z,1.73
2022-08-19T22:31:37.571Z,3.22
2022-08-19T22:34:06.734Z,2.33
2022-08-19T22:36:35.473Z,3.42
2022-08-19T22:39:06.207Z,1.83
2022-08-19T22:41:35.420Z,2.90
2022-08-19T22:44:03.779Z,1.88
2022-08-19T22:46:34.217Z,2.47
2022-08-19T22:49:02.073Z,3.22
2022-08-19T22:51:47.861Z,2.60
2022-08-19T22:54:16.097Z,2.80
2022-08-19T22:56:45.367Z,1.77
2022-08-19T22:59:13.400Z,2.17
2022-08-19T23:01:41.705Z,2.92
2022-08-19T23:04:09.579Z,2.85
2022-08-19T23:06:41.469Z,2.63
2022-08-19T23:09:16.680Z,3.47
2022-08-19T23:11:49.106Z,1.83
2022-08-19T23:14:17.545Z,1.95
2022-08-19T23:16:51.294Z,2.45
2022-08-19T23:19:20.843Z,3.53
2022-08-19T23:21:49.087Z,2.30
2022-08-19T23:24:18.984Z,4.18
2022-08-19T23:27:00.910Z,2.78
2022-08-19T23:29:48.590Z,2.42
2022-08-19T23:32:17.198Z,2.50
2022-08-19T23:34:45.776Z,3.55
2022-08-19T23:37:14.310Z,4.05
2022-08-19T23:39:42.619Z,2.78
2022-08-19T23:42:12.298Z,3.45
2022-08-19T23:44:52.065Z,1.70
2022-08-19T23:47:23.366Z,3.38
2022-08-19T23:49:53.998Z,4.10
2022-08-19T23:52:21.923Z,3.28
2022-08-19T23:54:51.628Z,3.60
2022-08-19T23:57:20.229Z,2.70
2022-08-19T23:59:49.692Z,2.85
